Buckie, United Kingdom
Current Conditions -  °F | °C
As of 1:50 AM on Thursday 23 Oct 2014 (Local Time) from EGQS Reporting Station
Clear Clear  
Wind Chill: 55°   Ceiling: Unl
Heat Index: 55°   Visibility: 6mi
Dew Point: 48°   Wind: 17mph
Humidity: 77%   Direction: 230°SW
Pressure: 29.68"   Gusts: NA
Location:  57.68°N, 2.96°W
Report Text: EGQS 230050Z 23015KT CAVOK 13/09 Q1005 BLU
Loading
Personal Weather Stations






























Interactive Weather Map
Tropical Storm Tracking
New forecast layout! Learn more

10-Day Weather Forecast

Advertisements
Track Severe Weather on mobile